sensor_id;sensor_type;location;lat;lon;timestamp;temperature;humidity
15554;DHT22;7878;44.632;10.942;2022-10-26T00:00:39;19.80;99.90
15554;DHT22;7878;44.632;10.942;2022-10-26T00:03:04;19.90;99.90
15554;DHT22;7878;44.632;10.942;2022-10-26T00:05:32;19.90;99.90
15554;DHT22;7878;44.632;10.942;2022-10-26T00:07:59;19.80;99.90
15554;DHT22;7878;44.632;10.942;2022-10-26T00:10:25;19.90;99.90
15554;DHT22;7878;44.632;10.942;2022-10-26T00:12:51;19.80;99.90
15554;DHT22;7878;44.632;10.942;2022-10-26T00:15:18;19.80;99.90
15554;DHT22;7878;44.632;10.942;2022-10-26T00:17:44;19.80;99.90
15554;DHT22;7878;44.632;10.942;2022-10-26T00:20:10;19.80;99.90
15554;DHT22;7878;44.632;10.942;2022-10-26T00:22:36;19.80;99.90
15554;DHT22;7878;44.632;10.942;2022-10-26T00:25:02;19.70;99.90
15554;DHT22;7878;44.632;10.942;2022-10-26T00:27:27;19.70;99.90
15554;DHT22;7878;44.632;10.942;2022-10-26T00:29:53;19.70;99.90
15554;DHT22;7878;44.632;10.942;2022-10-26T00:32:19;19.70;99.90
15554;DHT22;7878;44.632;10.942;2022-10-26T00:34:44;19.70;99.90
15554;DHT22;7878;44.632;10.942;2022-10-26T00:37:10;19.60;99.90
15554;DHT22;7878;44.632;10.942;2022-10-26T00:39:35;19.60;99.90
15554;DHT22;7878;44.632;10.942;2022-10-26T00:42:01;19.60;99.90
15554;DHT22;7878;44.632;10.942;2022-10-26T00:47:15;19.60;99.90
15554;DHT22;7878;44.632;10.942;2022-10-26T00:49:44;19.60;99.90
15554;DHT22;7878;44.632;10.942;2022-10-26T00:52:12;19.50;99.90
15554;DHT22;7878;44.632;10.942;2022-10-26T00:54:38;19.50;99.90
15554;DHT22;7878;44.632;10.942;2022-10-26T00:57:05;19.50;99.90
15554;DHT22;7878;44.632;10.942;2022-10-26T00:59:31;19.40;99.90
15554;DHT22;7878;44.632;10.942;2022-10-26T01:01:57;19.40;99.90
15554;DHT22;7878;44.632;10.942;2022-10-26T01:04:23;19.40;99.90
15554;DHT22;7878;44.632;10.942;2022-10-26T01:06:51;19.40;99.90
15554;DHT22;7878;44.632;10.942;2022-10-26T01:09:18;19.40;99.90
15554;DHT22;7878;44.632;10.942;2022-10-26T01:11:44;19.40;99.90
15554;DHT22;7878;44.632;10.942;2022-10-26T01:14:12;19.30;99.90
15554;DHT22;7878;44.632;10.942;2022-10-26T01:22:28;19.30;99.90
15554;DHT22;7878;44.632;10.942;2022-10-26T01:27:53;19.30;99.90
15554;DHT22;7878;44.632;10.942;2022-10-26T01:30:39;19.20;99.90
15554;DHT22;7878;44.632;10.942;2022-10-26T01:36:10;19.20;99.90
15554;DHT22;7878;44.632;10.942;2022-10-26T01:38:57;19.20;99.90
15554;DHT22;7878;44.632;10.942;2022-10-26T01:41:27;19.10;99.90
15554;DHT22;7878;44.632;10.942;2022-10-26T01:44:17;19.10;99.90
15554;DHT22;7878;44.632;10.942;2022-10-26T01:46:46;19.10;99.90
15554;DHT22;7878;44.632;10.942;2022-10-26T01:49:16;19.00;99.90
15554;DHT22;7878;44.632;10.942;2022-10-26T01:51:44;19.00;99.90
15554;DHT22;7878;44.632;10.942;2022-10-26T01:54:12;19.00;99.90
15554;DHT22;7878;44.632;10.942;2022-10-26T01:56:47;18.90;99.90
15554;DHT22;7878;44.632;10.942;2022-10-26T02:04:39;18.90;99.90
15554;DHT22;7878;44.632;10.942;2022-10-26T02:07:29;18.90;99.90
15554;DHT22;7878;44.632;10.942;2022-10-26T02:12:47;18.90;99.90
15554;DHT22;7878;44.632;10.942;2022-10-26T02:20:45;18.80;99.90
15554;DHT22;7878;44.632;10.942;2022-10-26T02:23:11;18.80;99.90
15554;DHT22;7878;44.632;10.942;2022-10-26T02:25:44;18.80;99.90
15554;DHT22;7878;44.632;10.942;2022-10-26T02:28:16;18.80;99.90
15554;DHT22;7878;44.632;10.942;2022-10-26T02:30:44;18.80;99.90
15554;DHT22;7878;44.632;10.942;2022-10-26T02:33:12;18.80;99.90
15554;DHT22;7878;44.632;10.942;2022-10-26T02:35:40;18.90;99.90
15554;DHT22;7878;44.632;10.942;2022-10-26T02:38:09;18.90;99.90
15554;DHT22;7878;44.632;10.942;2022-10-26T02:40:37;18.90;99.90
15554;DHT22;7878;44.632;10.942;2022-10-26T02:43:11;18.90;99.90
15554;DHT22;7878;44.632;10.942;2022-10-26T02:45:48;18.90;99.90
15554;DHT22;7878;44.632;10.942;2022-10-26T02:48:15;18.80;99.90
15554;DHT22;7878;44.632;10.942;2022-10-26T02:51:00;18.80;99.90
15554;DHT22;7878;44.632;10.942;2022-10-26T02:53:41;18.80;99.90
15554;DHT22;7878;44.632;10.942;2022-10-26T02:56:28;18.80;99.90
15554;DHT22;7878;44.632;10.942;2022-10-26T02:58:58;18.80;99.90
15554;DHT22;7878;44.632;10.942;2022-10-26T03:01:27;18.70;99.90
15554;DHT22;7878;44.632;10.942;2022-10-26T03:03:56;18.80;99.90
15554;DHT22;7878;44.632;10.942;2022-10-26T03:06:23;18.80;99.90
15554;DHT22;7878;44.632;10.942;2022-10-26T03:08:49;18.70;99.90
15554;DHT22;7878;44.632;10.942;2022-10-26T03:11:16;18.70;99.90
15554;DHT22;7878;44.632;10.942;2022-10-26T03:13:41;18.70;99.90
15554;DHT22;7878;44.632;10.942;2022-10-26T03:16:07;18.70;99.90
15554;DHT22;7878;44.632;10.942;2022-10-26T03:18:33;18.70;99.90
15554;DHT22;7878;44.632;10.942;2022-10-26T03:20:59;18.70;99.90
15554;DHT22;7878;44.632;10.942;2022-10-26T03:23:24;18.60;99.90
15554;DHT22;7878;44.632;10.942;2022-10-26T03:25:50;18.60;99.90
15554;DHT22;7878;44.632;10.942;2022-10-26T03:28:16;18.60;99.90
15554;DHT22;7878;44.632;10.942;2022-10-26T03:30:41;18.60;99.90
15554;DHT22;7878;44.632;10.942;2022-10-26T03:33:07;18.60;99.90
15554;DHT22;7878;44.632;10.942;2022-10-26T03:35:33;18.60;99.90
15554;DHT22;7878;44.632;10.942;2022-10-26T03:37:59;18.60;99.90
15554;DHT22;7878;44.632;10.942;2022-10-26T03:40:25;18.60;99.90
15554;DHT22;7878;44.632;10.942;2022-10-26T03:42:50;18.60;99.90
15554;DHT22;7878;44.632;10.942;2022-10-26T03:45:16;18.60;99.90
15554;DHT22;7878;44.632;10.942;2022-10-26T03:47:46;18.60;99.90
15554;DHT22;7878;44.632;10.942;2022-10-26T03:50:13;18.60;99.90
15554;DHT22;7878;44.632;10.942;2022-10-26T03:52:40;18.60;99.90
15554;DHT22;7878;44.632;10.942;2022-10-26T03:55:07;18.60;99.90
15554;DHT22;7878;44.632;10.942;2022-10-26T03:57:32;18.60;99.90
15554;DHT22;7878;44.632;10.942;2022-10-26T03:59:58;18.60;99.90
15554;DHT22;7878;44.632;10.942;2022-10-26T04:02:24;18.60;99.90
15554;DHT22;7878;44.632;10.942;2022-10-26T04:04:49;18.60;99.90
15554;DHT22;7878;44.632;10.942;2022-10-26T04:07:15;18.50;99.90
15554;DHT22;7878;44.632;10.942;2022-10-26T04:09:41;18.50;99.90
15554;DHT22;7878;44.632;10.942;2022-10-26T04:12:06;18.50;99.90
15554;DHT22;7878;44.632;10.942;2022-10-26T04:14:33;18.50;99.90
15554;DHT22;7878;44.632;10.942;2022-10-26T04:16:58;18.50;99.90
15554;DHT22;7878;44.632;10.942;2022-10-26T04:19:24;18.50;99.90
15554;DHT22;7878;44.632;10.942;2022-10-26T04:21:50;18.50;99.90
15554;DHT22;7878;44.632;10.942;2022-10-26T04:24:16;18.40;99.90
15554;DHT22;7878;44.632;10.942;2022-10-26T04:26:42;18.40;99.90
15554;DHT22;7878;44.632;10.942;2022-10-26T04:29:09;18.40;99.90
15554;DHT22;7878;44.632;10.942;2022-10-26T04:31:35;18.40;99.90
15554;DHT22;7878;44.632;10.942;2022-10-26T04:34:01;18.40;99.90
15554;DHT22;7878;44.632;10.942;2022-10-26T04:36:27;18.40;99.90
15554;DHT22;7878;44.632;10.942;2022-10-26T04:38:52;18.40;99.90
15554;DHT22;7878;44.632;10.942;2022-10-26T04:41:18;18.40;99.90
15554;DHT22;7878;44.632;10.942;2022-10-26T04:43:43;18.40;99.90
15554;DHT22;7878;44.632;10.942;2022-10-26T04:46:09;18.30;99.90
15554;DHT22;7878;44.632;10.942;2022-10-26T04:48:37;18.30;99.90
15554;DHT22;7878;44.632;10.942;2022-10-26T04:51:03;18.40;99.90
15554;DHT22;7878;44.632;10.942;2022-10-26T04:53:29;18.40;99.90
15554;DHT22;7878;44.632;10.942;2022-10-26T04:55:58;18.40;99.90
15554;DHT22;7878;44.632;10.942;2022-10-26T04:58:25;18.40;99.90
15554;DHT22;7878;44.632;10.942;2022-10-26T05:00:51;18.40;99.90
15554;DHT22;7878;44.632;10.942;2022-10-26T05:03:17;18.40;99.90
15554;DHT22;7878;44.632;10.942;2022-10-26T05:05:42;18.40;99.90
15554;DHT22;7878;44.632;10.942;2022-10-26T05:08:08;18.50;99.90
15554;DHT22;7878;44.632;10.942;2022-10-26T05:10:33;18.50;99.90
15554;DHT22;7878;44.632;10.942;2022-10-26T05:13:00;18.50;99.90
15554;DHT22;7878;44.632;10.942;2022-10-26T05:15:26;18.50;99.90
15554;DHT22;7878;44.632;10.942;2022-10-26T05:17:57;18.50;99.90
15554;DHT22;7878;44.632;10.942;2022-10-26T05:20:25;18.50;99.90
15554;DHT22;7878;44.632;10.942;2022-10-26T05:22:55;18.40;99.90
15554;DHT22;7878;44.632;10.942;2022-10-26T05:25:21;18.40;99.90
15554;DHT22;7878;44.632;10.942;2022-10-26T05:27:46;18.40;99.90
15554;DHT22;7878;44.632;10.942;2022-10-26T05:30:12;18.40;99.90
15554;DHT22;7878;44.632;10.942;2022-10-26T05:32:38;18.30;99.90
15554;DHT22;7878;44.632;10.942;2022-10-26T05:35:04;18.40;99.90
15554;DHT22;7878;44.632;10.942;2022-10-26T05:37:30;18.30;99.90
15554;DHT22;7878;44.632;10.942;2022-10-26T05:39:55;18.30;99.90
15554;DHT22;7878;44.632;10.942;2022-10-26T05:42:21;18.30;99.90
15554;DHT22;7878;44.632;10.942;2022-10-26T05:44:47;18.30;99.90
15554;DHT22;7878;44.632;10.942;2022-10-26T05:47:12;18.30;99.90
15554;DHT22;7878;44.632;10.942;2022-10-26T05:49:38;18.40;99.90
15554;DHT22;7878;44.632;10.942;2022-10-26T05:52:04;18.40;99.90
15554;DHT22;7878;44.632;10.942;2022-10-26T05:54:29;18.30;99.90
15554;DHT22;7878;44.632;10.942;2022-10-26T05:56:55;18.30;99.90
15554;DHT22;7878;44.632;10.942;2022-10-26T05:59:22;18.30;99.90
15554;DHT22;7878;44.632;10.942;2022-10-26T06:04:42;18.40;99.90
15554;DHT22;7878;44.632;10.942;2022-10-26T06:07:14;18.40;99.90
15554;DHT22;7878;44.632;10.942;2022-10-26T06:09:41;18.30;99.90
15554;DHT22;7878;44.632;10.942;2022-10-26T06:12:08;18.40;99.90
15554;DHT22;7878;44.632;10.942;2022-10-26T06:14:34;18.40;99.90
15554;DHT22;7878;44.632;10.942;2022-10-26T06:30:06;18.50;99.90
15554;DHT22;7878;44.632;10.942;2022-10-26T06:32:32;18.50;99.90
15554;DHT22;7878;44.632;10.942;2022-10-26T06:37:56;18.60;99.90
15554;DHT22;7878;44.632;10.942;2022-10-26T06:40:23;18.60;99.90
15554;DHT22;7878;44.632;10.942;2022-10-26T06:42:50;18.60;99.90
15554;DHT22;7878;44.632;10.942;2022-10-26T06:45:16;18.60;99.90
15554;DHT22;7878;44.632;10.942;2022-10-26T06:47:51;18.60;99.90
15554;DHT22;7878;44.632;10.942;2022-10-26T06:50:36;18.70;99.90
15554;DHT22;7878;44.632;10.942;2022-10-26T06:53:28;18.70;99.90
15554;DHT22;7878;44.632;10.942;2022-10-26T06:55:58;18.70;99.90
15554;DHT22;7878;44.632;10.942;2022-10-26T06:58:28;18.70;99.90
15554;DHT22;7878;44.632;10.942;2022-10-26T07:00:54;18.70;99.90
15554;DHT22;7878;44.632;10.942;2022-10-26T07:03:20;18.70;99.90
15554;DHT22;7878;44.632;10.942;2022-10-26T07:05:46;18.70;99.90
15554;DHT22;7878;44.632;10.942;2022-10-26T07:08:12;18.80;99.90
15554;DHT22;7878;44.632;10.942;2022-10-26T07:10:38;18.90;99.90
15554;DHT22;7878;44.632;10.942;2022-10-26T07:13:08;18.90;99.90
15554;DHT22;7878;44.632;10.942;2022-10-26T07:15:35;19.00;99.90
15554;DHT22;7878;44.632;10.942;2022-10-26T07:18:02;19.00;99.90
15554;DHT22;7878;44.632;10.942;2022-10-26T07:20:30;19.10;99.90
15554;DHT22;7878;44.632;10.942;2022-10-26T07:22:57;19.10;99.90
15554;DHT22;7878;44.632;10.942;2022-10-26T07:25:24;19.20;99.90
15554;DHT22;7878;44.632;10.942;2022-10-26T07:27:50;19.20;99.90
15554;DHT22;7878;44.632;10.942;2022-10-26T07:30:16;19.30;99.90
15554;DHT22;7878;44.632;10.942;2022-10-26T07:32:42;19.40;99.90
15554;DHT22;7878;44.632;10.942;2022-10-26T07:35:08;19.40;99.90
15554;DHT22;7878;44.632;10.942;2022-10-26T07:37:34;19.40;99.90
15554;DHT22;7878;44.632;10.942;2022-10-26T07:39:59;19.50;99.90
15554;DHT22;7878;44.632;10.942;2022-10-26T07:42:26;19.50;99.90
15554;DHT22;7878;44.632;10.942;2022-10-26T07:44:52;19.40;99.90
15554;DHT22;7878;44.632;10.942;2022-10-26T07:47:17;19.50;99.90
15554;DHT22;7878;44.632;10.942;2022-10-26T07:49:43;19.60;99.90
15554;DHT22;7878;44.632;10.942;2022-10-26T07:52:09;19.60;99.90
15554;DHT22;7878;44.632;10.942;2022-10-26T07:54:35;19.60;99.90
15554;DHT22;7878;44.632;10.942;2022-10-26T07:57:01;19.70;99.90
15554;DHT22;7878;44.632;10.942;2022-10-26T07:59:27;19.80;99.90
15554;DHT22;7878;44.632;10.942;2022-10-26T08:01:53;19.80;99.90
15554;DHT22;7878;44.632;10.942;2022-10-26T08:04:19;19.80;99.90
15554;DHT22;7878;44.632;10.942;2022-10-26T08:06:44;19.80;99.90
15554;DHT22;7878;44.632;10.942;2022-10-26T08:09:11;19.90;99.90
15554;DHT22;7878;44.632;10.942;2022-10-26T08:11:37;20.00;99.90
15554;DHT22;7878;44.632;10.942;2022-10-26T08:14:03;20.00;99.90
15554;DHT22;7878;44.632;10.942;2022-10-26T08:16:29;20.20;99.90
15554;DHT22;7878;44.632;10.942;2022-10-26T08:18:55;20.40;99.90
15554;DHT22;7878;44.632;10.942;2022-10-26T08:21:21;20.60;99.90
15554;DHT22;7878;44.632;10.942;2022-10-26T08:23:47;20.60;99.90
15554;DHT22;7878;44.632;10.942;2022-10-26T08:26:12;20.70;99.90
15554;DHT22;7878;44.632;10.942;2022-10-26T08:28:39;20.90;99.90
15554;DHT22;7878;44.632;10.942;2022-10-26T08:31:05;21.40;99.90
15554;DHT22;7878;44.632;10.942;2022-10-26T08:33:31;21.40;99.90
15554;DHT22;7878;44.632;10.942;2022-10-26T08:35:59;21.30;99.90
15554;DHT22;7878;44.632;10.942;2022-10-26T08:38:25;21.30;99.90
15554;DHT22;7878;44.632;10.942;2022-10-26T08:40:52;21.30;99.90
15554;DHT22;7878;44.632;10.942;2022-10-26T08:43:25;21.40;99.90
15554;DHT22;7878;44.632;10.942;2022-10-26T08:45:59;21.40;99.90
15554;DHT22;7878;44.632;10.942;2022-10-26T08:48:31;21.50;99.90
15554;DHT22;7878;44.632;10.942;2022-10-26T08:51:08;21.60;99.90
15554;DHT22;7878;44.632;10.942;2022-10-26T08:56:26;22.00;99.90
15554;DHT22;7878;44.632;10.942;2022-10-26T08:58:54;22.00;99.90
15554;DHT22;7878;44.632;10.942;2022-10-26T09:01:21;22.00;99.90
15554;DHT22;7878;44.632;10.942;2022-10-26T09:03:47;21.90;99.90
15554;DHT22;7878;44.632;10.942;2022-10-26T09:06:20;22.00;99.90
15554;DHT22;7878;44.632;10.942;2022-10-26T09:11:38;22.00;99.90
15554;DHT22;7878;44.632;10.942;2022-10-26T09:25:30;22.20;99.90
15554;DHT22;7878;44.632;10.942;2022-10-26T09:28:01;22.30;99.90
15554;DHT22;7878;44.632;10.942;2022-10-26T09:30:27;22.40;99.90
15554;DHT22;7878;44.632;10.942;2022-10-26T09:33:13;22.50;99.90
15554;DHT22;7878;44.632;10.942;2022-10-26T09:38:31;22.80;99.90
15554;DHT22;7878;44.632;10.942;2022-10-26T09:44:24;23.00;99.90
15554;DHT22;7878;44.632;10.942;2022-10-26T09:46:52;23.20;99.90
15554;DHT22;7878;44.632;10.942;2022-10-26T09:49:24;23.50;99.90
15554;DHT22;7878;44.632;10.942;2022-10-26T09:51:54;23.80;99.90
15554;DHT22;7878;44.632;10.942;2022-10-26T09:54:20;24.40;99.90
15554;DHT22;7878;44.632;10.942;2022-10-26T09:56:55;25.20;99.90
15554;DHT22;7878;44.632;10.942;2022-10-26T09:59:24;25.80;99.90
15554;DHT22;7878;44.632;10.942;2022-10-26T10:01:50;25.60;99.90
15554;DHT22;7878;44.632;10.942;2022-10-26T10:04:17;25.50;99.90
15554;DHT22;7878;44.632;10.942;2022-10-26T10:09:28;25.20;99.90
15554;DHT22;7878;44.632;10.942;2022-10-26T10:11:59;25.20;99.90
15554;DHT22;7878;44.632;10.942;2022-10-26T10:14:31;25.20;99.90
15554;DHT22;7878;44.632;10.942;2022-10-26T10:17:02;25.30;99.90
15554;DHT22;7878;44.632;10.942;2022-10-26T10:19:31;25.60;99.90
15554;DHT22;7878;44.632;10.942;2022-10-26T10:22:07;26.00;99.90
15554;DHT22;7878;44.632;10.942;2022-10-26T10:24:40;26.70;99.90
15554;DHT22;7878;44.632;10.942;2022-10-26T10:29:42;29.20;99.90
15554;DHT22;7878;44.632;10.942;2022-10-26T10:32:17;30.00;99.90
15554;DHT22;7878;44.632;10.942;2022-10-26T10:34:45;32.00;99.90
15554;DHT22;7878;44.632;10.942;2022-10-26T10:37:33;34.00;99.90
15554;DHT22;7878;44.632;10.942;2022-10-26T10:42:33;35.00;98.50
15554;DHT22;7878;44.632;10.942;2022-10-26T10:45:00;36.50;98.60
15554;DHT22;7878;44.632;10.942;2022-10-26T10:47:36;37.40;96.90
15554;DHT22;7878;44.632;10.942;2022-10-26T10:50:15;36.60;92.70
15554;DHT22;7878;44.632;10.942;2022-10-26T10:52:42;36.10;92.50
15554;DHT22;7878;44.632;10.942;2022-10-26T11:00:40;35.60;91.10
15554;DHT22;7878;44.632;10.942;2022-10-26T11:06:19;38.30;93.20
15554;DHT22;7878;44.632;10.942;2022-10-26T11:09:00;40.10;85.40
15554;DHT22;7878;44.632;10.942;2022-10-26T11:14:14;42.20;84.50
15554;DHT22;7878;44.632;10.942;2022-10-26T11:16:45;42.70;89.10
15554;DHT22;7878;44.632;10.942;2022-10-26T11:19:35;43.40;83.40
15554;DHT22;7878;44.632;10.942;2022-10-26T11:22:04;43.80;74.30
15554;DHT22;7878;44.632;10.942;2022-10-26T11:27:12;44.70;71.00
15554;DHT22;7878;44.632;10.942;2022-10-26T11:30:21;45.00;73.30
15554;DHT22;7878;44.632;10.942;2022-10-26T11:32:46;44.90;77.30
15554;DHT22;7878;44.632;10.942;2022-10-26T11:35:28;45.10;65.00
15554;DHT22;7878;44.632;10.942;2022-10-26T11:38:13;45.50;66.00
15554;DHT22;7878;44.632;10.942;2022-10-26T11:43:38;43.10;67.90
15554;DHT22;7878;44.632;10.942;2022-10-26T11:51:49;44.20;70.50
15554;DHT22;7878;44.632;10.942;2022-10-26T11:54:24;44.80;66.70
15554;DHT22;7878;44.632;10.942;2022-10-26T11:56:54;43.90;68.10
15554;DHT22;7878;44.632;10.942;2022-10-26T11:59:29;43.80;71.60
15554;DHT22;7878;44.632;10.942;2022-10-26T12:02:05;44.20;71.80
15554;DHT22;7878;44.632;10.942;2022-10-26T12:04:36;44.80;64.40
15554;DHT22;7878;44.632;10.942;2022-10-26T12:07:09;45.10;69.70
15554;DHT22;7878;44.632;10.942;2022-10-26T12:09:38;45.50;64.80
15554;DHT22;7878;44.632;10.942;2022-10-26T12:20:47;46.70;62.30
15554;DHT22;7878;44.632;10.942;2022-10-26T12:23:09;46.70;57.40
15554;DHT22;7878;44.632;10.942;2022-10-26T12:25:35;46.70;64.60
15554;DHT22;7878;44.632;10.942;2022-10-26T12:28:00;46.60;67.20
15554;DHT22;7878;44.632;10.942;2022-10-26T12:30:31;46.60;67.30
15554;DHT22;7878;44.632;10.942;2022-10-26T12:33:02;45.10;64.80
15554;DHT22;7878;44.632;10.942;2022-10-26T12:35:43;42.10;64.30
15554;DHT22;7878;44.632;10.942;2022-10-26T12:41:17;37.20;63.80
15554;DHT22;7878;44.632;10.942;2022-10-26T12:43:43;35.60;65.50
15554;DHT22;7878;44.632;10.942;2022-10-26T12:48:39;33.60;75.70
15554;DHT22;7878;44.632;10.942;2022-10-26T12:56:30;31.70;75.40
15554;DHT22;7878;44.632;10.942;2022-10-26T13:09:49;30.10;81.20
15554;DHT22;7878;44.632;10.942;2022-10-26T13:12:18;29.80;83.30
15554;DHT22;7878;44.632;10.942;2022-10-26T13:14:58;29.50;83.70
15554;DHT22;7878;44.632;10.942;2022-10-26T13:17:27;29.30;80.90
15554;DHT22;7878;44.632;10.942;2022-10-26T13:20:02;29.10;84.30
15554;DHT22;7878;44.632;10.942;2022-10-26T13:22:28;28.90;83.40
15554;DHT22;7878;44.632;10.942;2022-10-26T13:24:58;28.70;85.20
15554;DHT22;7878;44.632;10.942;2022-10-26T13:32:32;28.30;85.10
15554;DHT22;7878;44.632;10.942;2022-10-26T13:34:59;28.20;86.50
15554;DHT22;7878;44.632;10.942;2022-10-26T13:37:29;28.10;86.80
15554;DHT22;7878;44.632;10.942;2022-10-26T13:39:56;28.00;87.10
15554;DHT22;7878;44.632;10.942;2022-10-26T13:42:42;27.90;87.50
15554;DHT22;7878;44.632;10.942;2022-10-26T13:45:17;27.80;86.50
15554;DHT22;7878;44.632;10.942;2022-10-26T13:50:47;27.60;87.70
15554;DHT22;7878;44.632;10.942;2022-10-26T13:53:36;27.40;85.90
15554;DHT22;7878;44.632;10.942;2022-10-26T13:56:26;27.40;87.50
15554;DHT22;7878;44.632;10.942;2022-10-26T13:59:13;27.30;89.10
15554;DHT22;7878;44.632;10.942;2022-10-26T14:01:39;27.20;87.60
15554;DHT22;7878;44.632;10.942;2022-10-26T14:04:26;27.20;90.00
15554;DHT22;7878;44.632;10.942;2022-10-26T14:06:53;27.00;87.70
15554;DHT22;7878;44.632;10.942;2022-10-26T14:09:20;26.90;90.00
15554;DHT22;7878;44.632;10.942;2022-10-26T14:11:58;26.90;90.20
15554;DHT22;7878;44.632;10.942;2022-10-26T14:14:32;26.90;88.90
15554;DHT22;7878;44.632;10.942;2022-10-26T14:16:59;26.80;89.70
15554;DHT22;7878;44.632;10.942;2022-10-26T14:19:35;26.80;90.50
15554;DHT22;7878;44.632;10.942;2022-10-26T14:22:02;26.70;90.60
15554;DHT22;7878;44.632;10.942;2022-10-26T14:24:30;26.70;90.70
15554;DHT22;7878;44.632;10.942;2022-10-26T14:26:56;26.60;90.80
15554;DHT22;7878;44.632;10.942;2022-10-26T14:29:24;26.50;90.90
15554;DHT22;7878;44.632;10.942;2022-10-26T14:31:50;26.50;91.10
15554;DHT22;7878;44.632;10.942;2022-10-26T14:34:17;26.40;91.20
15554;DHT22;7878;44.632;10.942;2022-10-26T14:41:49;26.30;91.60
15554;DHT22;7878;44.632;10.942;2022-10-26T14:44:20;26.30;91.60
15554;DHT22;7878;44.632;10.942;2022-10-26T14:46:46;26.30;91.70
15554;DHT22;7878;44.632;10.942;2022-10-26T14:49:18;26.20;91.90
15554;DHT22;7878;44.632;10.942;2022-10-26T14:51:44;26.20;91.90
15554;DHT22;7878;44.632;10.942;2022-10-26T14:54:19;26.20;92.20
15554;DHT22;7878;44.632;10.942;2022-10-26T14:56:45;26.20;92.10
15554;DHT22;7878;44.632;10.942;2022-10-26T14:59:27;26.10;92.50
15554;DHT22;7878;44.632;10.942;2022-10-26T15:02:03;26.00;92.40
15554;DHT22;7878;44.632;10.942;2022-10-26T15:04:38;25.90;92.50
15554;DHT22;7878;44.632;10.942;2022-10-26T15:07:07;25.90;92.90
15554;DHT22;7878;44.632;10.942;2022-10-26T15:09:40;25.80;93.00
15554;DHT22;7878;44.632;10.942;2022-10-26T15:14:52;25.70;93.30
15554;DHT22;7878;44.632;10.942;2022-10-26T15:17:23;25.60;93.60
15554;DHT22;7878;44.632;10.942;2022-10-26T15:19:52;25.60;93.80
15554;DHT22;7878;44.632;10.942;2022-10-26T15:22:26;25.60;93.90
15554;DHT22;7878;44.632;10.942;2022-10-26T15:24:55;25.50;94.00
15554;DHT22;7878;44.632;10.942;2022-10-26T15:27:22;25.40;94.00
15554;DHT22;7878;44.632;10.942;2022-10-26T15:29:51;25.40;94.20
15554;DHT22;7878;44.632;10.942;2022-10-26T15:32:30;25.40;94.30
15554;DHT22;7878;44.632;10.942;2022-10-26T15:35:19;25.40;94.50
15554;DHT22;7878;44.632;10.942;2022-10-26T15:37:48;25.30;94.60
15554;DHT22;7878;44.632;10.942;2022-10-26T15:40:14;25.20;94.80
15554;DHT22;7878;44.632;10.942;2022-10-26T15:42:40;25.20;95.10
15554;DHT22;7878;44.632;10.942;2022-10-26T15:45:26;25.20;95.20
15554;DHT22;7878;44.632;10.942;2022-10-26T15:47:54;25.10;95.50
15554;DHT22;7878;44.632;10.942;2022-10-26T15:50:26;25.10;95.80
15554;DHT22;7878;44.632;10.942;2022-10-26T15:53:00;25.00;95.70
15554;DHT22;7878;44.632;10.942;2022-10-26T15:55:27;25.00;95.80
15554;DHT22;7878;44.632;10.942;2022-10-26T15:57:53;25.00;95.90
15554;DHT22;7878;44.632;10.942;2022-10-26T16:00:19;24.90;96.10
15554;DHT22;7878;44.632;10.942;2022-10-26T16:02:45;24.80;96.20
15554;DHT22;7878;44.632;10.942;2022-10-26T16:05:14;24.80;96.40
15554;DHT22;7878;44.632;10.942;2022-10-26T16:07:42;24.80;96.60
15554;DHT22;7878;44.632;10.942;2022-10-26T16:10:21;24.70;96.60
15554;DHT22;7878;44.632;10.942;2022-10-26T16:12:48;24.60;96.90
15554;DHT22;7878;44.632;10.942;2022-10-26T16:15:22;24.60;97.10
15554;DHT22;7878;44.632;10.942;2022-10-26T16:17:49;24.60;97.40
15554;DHT22;7878;44.632;10.942;2022-10-26T16:20:18;24.50;97.40
15554;DHT22;7878;44.632;10.942;2022-10-26T16:22:46;24.50;97.60
15554;DHT22;7878;44.632;10.942;2022-10-26T16:25:14;24.40;97.70
15554;DHT22;7878;44.632;10.942;2022-10-26T16:27:40;24.40;97.80
15554;DHT22;7878;44.632;10.942;2022-10-26T16:30:06;24.30;98.00
15554;DHT22;7878;44.632;10.942;2022-10-26T16:32:32;24.30;98.20
15554;DHT22;7878;44.632;10.942;2022-10-26T16:34:58;24.30;98.30
15554;DHT22;7878;44.632;10.942;2022-10-26T16:37:23;24.20;98.30
15554;DHT22;7878;44.632;10.942;2022-10-26T16:39:49;24.20;98.50
15554;DHT22;7878;44.632;10.942;2022-10-26T16:42:14;24.10;98.60
15554;DHT22;7878;44.632;10.942;2022-10-26T16:44:40;24.10;98.80
15554;DHT22;7878;44.632;10.942;2022-10-26T16:47:06;24.00;98.90
15554;DHT22;7878;44.632;10.942;2022-10-26T16:49:31;24.00;99.10
15554;DHT22;7878;44.632;10.942;2022-10-26T16:51:57;23.90;99.30
15554;DHT22;7878;44.632;10.942;2022-10-26T16:54:23;23.90;99.40
15554;DHT22;7878;44.632;10.942;2022-10-26T16:56:50;23.80;99.60
15554;DHT22;7878;44.632;10.942;2022-10-26T16:59:16;23.80;99.60
15554;DHT22;7878;44.632;10.942;2022-10-26T17:01:41;23.80;99.80
15554;DHT22;7878;44.632;10.942;2022-10-26T17:04:08;23.80;99.90
15554;DHT22;7878;44.632;10.942;2022-10-26T17:06:34;23.80;99.90
15554;DHT22;7878;44.632;10.942;2022-10-26T17:09:00;23.80;99.90
15554;DHT22;7878;44.632;10.942;2022-10-26T17:11:25;23.70;99.90
15554;DHT22;7878;44.632;10.942;2022-10-26T17:13:54;23.70;99.90
15554;DHT22;7878;44.632;10.942;2022-10-26T17:16:22;23.70;99.90
15554;DHT22;7878;44.632;10.942;2022-10-26T17:18:48;23.70;99.90
15554;DHT22;7878;44.632;10.942;2022-10-26T17:21:17;23.60;99.90
15554;DHT22;7878;44.632;10.942;2022-10-26T17:23:43;23.60;99.90
15554;DHT22;7878;44.632;10.942;2022-10-26T17:26:11;23.60;99.90
15554;DHT22;7878;44.632;10.942;2022-10-26T17:28:37;23.60;99.90
15554;DHT22;7878;44.632;10.942;2022-10-26T17:31:12;23.50;99.90
15554;DHT22;7878;44.632;10.942;2022-10-26T17:33:39;23.50;99.90
15554;DHT22;7878;44.632;10.942;2022-10-26T17:36:07;23.50;99.90
15554;DHT22;7878;44.632;10.942;2022-10-26T17:38:35;23.50;99.90
15554;DHT22;7878;44.632;10.942;2022-10-26T17:41:08;23.40;99.90
15554;DHT22;7878;44.632;10.942;2022-10-26T17:43:37;23.40;99.90
15554;DHT22;7878;44.632;10.942;2022-10-26T17:46:08;23.40;99.90
15554;DHT22;7878;44.632;10.942;2022-10-26T17:48:34;23.40;99.90
15554;DHT22;7878;44.632;10.942;2022-10-26T17:51:01;23.40;99.90
15554;DHT22;7878;44.632;10.942;2022-10-26T17:53:28;23.40;99.90
15554;DHT22;7878;44.632;10.942;2022-10-26T17:58:32;23.30;99.90
15554;DHT22;7878;44.632;10.942;2022-10-26T18:01:05;23.30;99.90
15554;DHT22;7878;44.632;10.942;2022-10-26T18:03:31;23.30;99.90
15554;DHT22;7878;44.632;10.942;2022-10-26T18:05:57;23.20;99.90
15554;DHT22;7878;44.632;10.942;2022-10-26T18:08:23;23.20;99.90
15554;DHT22;7878;44.632;10.942;2022-10-26T18:10:50;23.20;99.90